createdAt,value
2023-03-20T00:06:50.997Z,23.55
2023-03-20T00:14:59.256Z,20.30
2023-03-20T00:23:05.210Z,20.33
2023-03-20T00:31:25.545Z,19.52
2023-03-20T00:39:31.841Z,15.88
2023-03-20T00:47:44.852Z,13.73
2023-03-20T00:55:50.681Z,14.20
2023-03-20T01:03:58.641Z,15.27
2023-03-20T01:12:05.587Z,15.65
2023-03-20T01:20:19.505Z,15.48
2023-03-20T01:28:27.362Z,16.55
2023-03-20T01:36:35.625Z,18.33
2023-03-20T01:44:43.142Z,20.50
2023-03-20T01:52:53.993Z,17.33
2023-03-20T02:00:59.856Z,15.52
2023-03-20T02:09:08.536Z,14.30
2023-03-20T02:17:19.739Z,13.90
2023-03-20T02:26:06.051Z,12.27
2023-03-20T02:34:35.863Z,11.82
2023-03-20T02:42:53.443Z,12.77
2023-03-20T02:51:05.162Z,12.82
2023-03-20T02:59:24.298Z,11.70
2023-03-20T03:07:33.931Z,11.13
2023-03-20T03:15:45.175Z,9.27
2023-03-20T03:23:52.336Z,9.18
2023-03-20T03:32:01.465Z,8.23
2023-03-20T03:40:17.831Z,8.38
2023-03-20T03:48:29.730Z,9.38
2023-03-20T03:56:37.789Z,8.80
2023-03-20T04:04:49.127Z,9.60
2023-03-20T04:12:54.760Z,10.10
2023-03-20T04:21:03.386Z,9.07
2023-03-20T04:29:08.886Z,9.52
2023-03-20T04:37:30.982Z,10.13
2023-03-20T04:45:44.332Z,9.52
2023-03-20T04:53:52.638Z,9.23
2023-03-20T05:01:58.108Z,9.75
2023-03-20T05:10:07.201Z,9.75
2023-03-20T05:18:22.543Z,9.85
2023-03-20T05:26:49.343Z,10.13
2023-03-20T05:35:30.131Z,9.90
2023-03-20T05:44:07.508Z,9.98
2023-03-20T05:52:36.077Z,9.57
2023-03-20T06:01:07.831Z,11.25
2023-03-20T06:09:38.875Z,13.07
2023-03-20T06:17:51.447Z,13.68
2023-03-20T06:25:57.130Z,13.07
2023-03-20T06:34:06.569Z,10.80
2023-03-20T06:42:17.820Z,11.48
2023-03-20T06:50:28.229Z,11.77
2023-03-20T06:58:34.824Z,11.23
2023-03-20T07:06:43.233Z,11.32
2023-03-20T07:14:50.269Z,9.75
2023-03-20T07:23:01.080Z,11.35
2023-03-20T07:31:10.339Z,12.13
2023-03-20T07:39:19.353Z,10.90
2023-03-20T07:47:35.656Z,12.27
2023-03-20T07:55:47.413Z,11.88
2023-03-20T08:03:53.057Z,10.85
2023-03-20T08:12:01.655Z,10.88
2023-03-20T08:20:08.279Z,11.25
2023-03-20T08:28:16.605Z,10.25
2023-03-20T08:36:22.730Z,11.65
2023-03-20T08:44:31.049Z,9.50
2023-03-20T08:52:36.695Z,9.50
2023-03-20T09:00:48.071Z,8.88
2023-03-20T09:08:54.725Z,7.63
2023-03-20T09:17:02.766Z,8.32
2023-03-20T09:25:09.257Z,8.45
2023-03-20T09:33:18.902Z,8.45
2023-03-20T09:41:28.266Z,8.52
2023-03-20T09:49:48.274Z,5.82
2023-03-20T09:57:59.358Z,5.15
2023-03-20T10:06:12.188Z,5.82
2023-03-20T10:14:31.230Z,5.90
2023-03-20T10:22:41.276Z,5.32
2023-03-20T10:31:01.320Z,5.38
2023-03-20T10:39:16.181Z,5.47
2023-03-20T10:47:25.939Z,4.65
2023-03-20T11:03:41.510Z,4.37
2023-03-20T11:11:51.581Z,4.22
2023-03-20T11:19:57.194Z,3.80
2023-03-20T11:28:28.192Z,4.55
2023-03-20T11:36:37.690Z,4.47
2023-03-20T11:44:59.900Z,3.83
2023-03-20T11:53:07.295Z,4.78
2023-03-20T12:01:16.733Z,4.57
2023-03-20T12:09:41.013Z,4.60
2023-03-20T12:17:54.688Z,5.38
2023-03-20T12:26:07.455Z,5.32
2023-03-20T12:34:22.359Z,4.90
2023-03-20T12:42:42.040Z,4.85
2023-03-20T12:50:56.026Z,4.55
2023-03-20T12:59:08.807Z,4.63
2023-03-20T13:07:22.747Z,5.03
2023-03-20T13:15:37.256Z,5.40
2023-03-20T13:23:53.621Z,5.07
2023-03-20T13:32:10.188Z,4.43
2023-03-20T13:40:25.828Z,5.10
2023-03-20T13:48:38.021Z,5.18
2023-03-20T13:56:56.108Z,5.73
2023-03-20T14:05:07.932Z,6.10
2023-03-20T14:13:22.244Z,4.88
2023-03-20T14:21:27.930Z,6.32
2023-03-20T14:29:41.573Z,4.65
2023-03-20T14:38:22.104Z,4.47
2023-03-20T14:46:42.620Z,4.70
2023-03-20T14:54:56.338Z,3.85
2023-03-20T15:03:12.587Z,5.50
2023-03-20T15:11:19.160Z,4.32
2023-03-20T15:19:27.783Z,4.50
2023-03-20T15:27:35.429Z,6.82
2023-03-20T15:35:44.791Z,6.72
2023-03-20T15:43:50.401Z,7.93
2023-03-20T15:52:02.481Z,9.30
2023-03-20T16:00:11.437Z,5.88
2023-03-20T16:08:27.345Z,6.40
2023-03-20T16:16:37.524Z,8.00
2023-03-20T16:24:49.652Z,43.58
2023-03-20T16:33:02.024Z,31.73
2023-03-20T16:41:30.220Z,22.03
2023-03-20T16:49:55.230Z,19.92
2023-03-20T16:58:06.527Z,31.65
2023-03-20T17:06:35.766Z,23.92
2023-03-20T17:14:45.374Z,13.00
2023-03-20T17:22:52.103Z,19.42
2023-03-20T17:31:00.862Z,13.77
2023-03-20T17:39:06.685Z,13.73
2023-03-20T17:47:18.048Z,11.07
2023-03-20T17:55:23.431Z,16.42
2023-03-20T18:03:31.429Z,17.65
2023-03-20T18:11:37.205Z,18.42
2023-03-20T18:19:46.443Z,17.48
2023-03-20T18:27:52.244Z,15.15
2023-03-20T18:36:00.679Z,13.68
2023-03-20T18:44:06.857Z,13.30
2023-03-20T18:52:15.117Z,14.48
2023-03-20T19:00:24.825Z,14.00
2023-03-20T19:08:35.342Z,15.43
2023-03-20T19:16:41.520Z,13.50
2023-03-20T19:24:49.718Z,12.13
2023-03-20T19:32:55.476Z,11.10
2023-03-20T19:41:04.036Z,11.25
2023-03-20T19:49:09.371Z,10.65
2023-03-20T19:57:18.474Z,11.50
2023-03-20T20:05:27.232Z,13.50
2023-03-20T20:13:50.728Z,11.95
2023-03-20T20:22:20.005Z,15.35
2023-03-20T20:30:30.267Z,16.95
2023-03-20T20:38:52.091Z,16.38
2023-03-20T20:47:00.330Z,15.88
2023-03-20T20:55:21.703Z,15.38
2023-03-20T21:03:31.405Z,15.20
2023-03-20T21:11:38.401Z,14.93
2023-03-20T21:19:46.641Z,15.25
2023-03-20T21:27:52.257Z,15.30
2023-03-20T21:36:00.869Z,17.45
2023-03-20T21:44:06.661Z,18.05
2023-03-20T22:10:11.023Z,15.70
2023-03-20T22:18:31.809Z,14.57
2023-03-20T22:27:08.629Z,13.70
2023-03-20T22:35:33.113Z,12.90
2023-03-20T22:51:52.219Z,12.68
2023-03-20T23:00:10.608Z,13.52
2023-03-20T23:08:15.997Z,13.50
2023-03-20T23:16:24.166Z,13.43
2023-03-20T23:24:29.712Z,16.10
2023-03-20T23:32:39.173Z,16.40
2023-03-20T23:40:44.918Z,16.77
2023-03-20T23:48:52.890Z,15.88
2023-03-20T23:56:58.296Z,15.73
